Arkdale, Wisconsin
Current Conditions -  °F | °C
As of 7:44 PM on Wednesday 26 Nov 2014 (Local Time) from KVOK Reporting Station
Light Snow Light Snow  
Wind Chill: 23°   Ceiling: 1000
Heat Index: 23°   Visibility: 5mi
Dew Point: 23°   Wind: 3mph
Humidity: 100%   Direction: 300°WNW
Pressure: 30.2"   Gusts: NA
Location:  44.03°N, 89.89°W
Report Text: KVOK 270144Z AUTO 30003KT 5SM R27/4500FT -SN BR BKN010 OVC017 M05/M05 A3020 RMK AO2 SNB0104 CIG 010V017 BKN V FEW
Loading
Personal Weather Stations






























Interactive Weather Map New forecast layout! Learn more

10-Day Weather Forecast

Advertisements
Track Severe Weather on mobile